首页
METAR-TAF:

METAR-TAF

机场 :

布里斯托機場

布里斯托尔, 英格兰

纬度: 51-23N, 经度: 002-43W, 海拔: 189米

当前天气观测

该预报发布于22分钟前的08:50 UTC
风速20节,风向北转东北,有时为32节阵风
温度 3°C
湿度 65%
气压 1039 hPa
能见度10公里或以上
散云层高于2900英尺
多云层高于3800英尺

METAR: EGGD 290850Z AUTO 03020G32KT 9999 SCT029 BKN038 03/M03 Q1039

时间: 10:12 (09:12 UTC)

预报

该预报发布于4小时和18分钟前的04:54 UTC
预报有效从29日的 06点(UTC)到 30日的 06点(UTC)
风速17节,风向北转东北
能见度10公里或以上
散云层高于3000英尺
成为
从 29日的 06点(UTC)到 29日的 09点(UTC)
风速20节,风向东北,有时为30节阵风
成为
从 29日的 18点(UTC)到 29日的 21点(UTC)
风速12节,风向东北

TAF: EGGD 290454Z 2906/3006 03017KT 9999 SCT030 BECMG 2906/2909 04020G30KT BECMG 2918/2921 04012KT

超过4000个机场的气象观测和天气预报(METAR&TAF报告)。

可查询的气象台以黄色和红色小点在地图上表示。

将鼠标移到小点上方,可查看气象台名称。

然后点击查看天气观测和预报。

如需切换地图:点击带黑十字的绿色按钮放大地图;点击带横线的绿色按钮缩小地图;或者点击绿色箭头查看邻近地区的地图。


METAR-TAF: